sensor_id;sensor_type;location;lat;lon;timestamp;P1;durP1;ratioP1;P2;durP2;ratioP2
40849;SDS011;26571;41.610;25.380;2023-02-10T00:02:21;5.07;;;4.57;;
40849;SDS011;26571;41.610;25.380;2023-02-10T00:04:46;10.38;;;7.10;;
40849;SDS011;26571;41.610;25.380;2023-02-10T00:07:12;6.85;;;5.35;;
40849;SDS011;26571;41.610;25.380;2023-02-10T00:09:37;11.07;;;7.68;;
40849;SDS011;26571;41.610;25.380;2023-02-10T00:12:02;11.43;;;8.05;;
40849;SDS011;26571;41.610;25.380;2023-02-10T00:14:29;13.48;;;9.38;;
40849;SDS011;26571;41.610;25.380;2023-02-10T00:16:55;8.57;;;7.63;;
40849;SDS011;26571;41.610;25.380;2023-02-10T00:19:22;12.90;;;8.43;;
40849;SDS011;26571;41.610;25.380;2023-02-10T00:21:49;11.25;;;7.88;;
40849;SDS011;26571;41.610;25.380;2023-02-10T00:24:14;12.55;;;8.75;;
40849;SDS011;26571;41.610;25.380;2023-02-10T00:26:40;10.05;;;7.78;;
40849;SDS011;26571;41.610;25.380;2023-02-10T00:29:05;10.93;;;8.05;;
40849;SDS011;26571;41.610;25.380;2023-02-10T00:31:30;11.65;;;7.78;;
40849;SDS011;26571;41.610;25.380;2023-02-10T00:33:56;12.80;;;8.52;;
40849;SDS011;26571;41.610;25.380;2023-02-10T00:36:21;13.10;;;8.98;;
40849;SDS011;26571;41.610;25.380;2023-02-10T00:38:50;9.48;;;7.97;;
40849;SDS011;26571;41.610;25.380;2023-02-10T00:41:17;7.80;;;6.70;;
40849;SDS011;26571;41.610;25.380;2023-02-10T00:43:44;11.55;;;7.97;;
40849;SDS011;26571;41.610;25.380;2023-02-10T00:46:10;8.32;;;7.28;;
40849;SDS011;26571;41.610;25.380;2023-02-10T00:48:37;10.75;;;8.10;;
40849;SDS011;26571;41.610;25.380;2023-02-10T00:51:02;10.23;;;7.63;;
40849;SDS011;26571;41.610;25.380;2023-02-10T00:53:29;11.57;;;9.13;;
40849;SDS011;26571;41.610;25.380;2023-02-10T00:55:55;8.88;;;7.18;;
40849;SDS011;26571;41.610;25.380;2023-02-10T00:58:21;9.88;;;6.63;;
40849;SDS011;26571;41.610;25.380;2023-02-10T01:00:46;7.18;;;6.35;;
40849;SDS011;26571;41.610;25.380;2023-02-10T01:03:12;6.53;;;5.40;;
40849;SDS011;26571;41.610;25.380;2023-02-10T01:05:38;6.93;;;5.43;;
40849;SDS011;26571;41.610;25.380;2023-02-10T01:08:03;8.10;;;7.28;;
40849;SDS011;26571;41.610;25.380;2023-02-10T01:10:29;9.18;;;7.97;;
40849;SDS011;26571;41.610;25.380;2023-02-10T01:12:54;8.00;;;6.28;;
40849;SDS011;26571;41.610;25.380;2023-02-10T01:15:20;7.35;;;6.28;;
40849;SDS011;26571;41.610;25.380;2023-02-10T01:17:45;6.90;;;6.07;;
40849;SDS011;26571;41.610;25.380;2023-02-10T01:20:11;9.63;;;6.28;;
40849;SDS011;26571;41.610;25.380;2023-02-10T01:22:36;6.28;;;5.68;;
40849;SDS011;26571;41.610;25.380;2023-02-10T01:25:02;5.75;;;5.22;;
40849;SDS011;26571;41.610;25.380;2023-02-10T01:27:27;6.20;;;5.53;;
40849;SDS011;26571;41.610;25.380;2023-02-10T01:29:53;7.00;;;3.95;;
40849;SDS011;26571;41.610;25.380;2023-02-10T01:32:18;5.15;;;4.65;;
40849;SDS011;26571;41.610;25.380;2023-02-10T01:34:44;4.55;;;4.13;;
40849;SDS011;26571;41.610;25.380;2023-02-10T01:37:09;4.47;;;4.07;;
40849;SDS011;26571;41.610;25.380;2023-02-10T01:39:35;5.15;;;4.65;;
40849;SDS011;26571;41.610;25.380;2023-02-10T01:42:01;4.90;;;4.22;;
40849;SDS011;26571;41.610;25.380;2023-02-10T01:46:52;4.38;;;4.00;;
40849;SDS011;26571;41.610;25.380;2023-02-10T01:49:20;3.60;;;2.75;;
40849;SDS011;26571;41.610;25.380;2023-02-10T01:51:58;5.85;;;4.78;;
40849;SDS011;26571;41.610;25.380;2023-02-10T01:54:29;5.03;;;4.60;;
40849;SDS011;26571;41.610;25.380;2023-02-10T01:56:58;6.07;;;4.13;;
40849;SDS011;26571;41.610;25.380;2023-02-10T01:59:26;5.45;;;5.05;;
40849;SDS011;26571;41.610;25.380;2023-02-10T02:01:55;6.10;;;4.97;;
40849;SDS011;26571;41.610;25.380;2023-02-10T02:04:20;5.30;;;4.32;;
40849;SDS011;26571;41.610;25.380;2023-02-10T02:06:46;4.28;;;3.97;;
40849;SDS011;26571;41.610;25.380;2023-02-10T02:09:12;7.40;;;4.55;;
40849;SDS011;26571;41.610;25.380;2023-02-10T02:11:42;6.95;;;4.93;;
40849;SDS011;26571;41.610;25.380;2023-02-10T02:37:01;4.75;;;4.43;;
40849;SDS011;26571;41.610;25.380;2023-02-10T02:39:31;4.57;;;4.22;;
40849;SDS011;26571;41.610;25.380;2023-02-10T02:44:38;4.72;;;4.13;;
40849;SDS011;26571;41.610;25.380;2023-02-10T02:47:06;4.28;;;3.88;;
40849;SDS011;26571;41.610;25.380;2023-02-10T02:58:58;5.78;;;5.18;;
40849;SDS011;26571;41.610;25.380;2023-02-10T03:01:45;4.65;;;4.20;;
40849;SDS011;26571;41.610;25.380;2023-02-10T03:04:19;5.95;;;4.10;;
40849;SDS011;26571;41.610;25.380;2023-02-10T03:06:45;4.90;;;4.60;;
40849;SDS011;26571;41.610;25.380;2023-02-10T03:09:12;5.25;;;4.88;;
40849;SDS011;26571;41.610;25.380;2023-02-10T03:11:38;6.55;;;3.88;;
40849;SDS011;26571;41.610;25.380;2023-02-10T03:14:03;4.38;;;4.07;;
40849;SDS011;26571;41.610;25.380;2023-02-10T03:16:28;5.50;;;5.03;;
40849;SDS011;26571;41.610;25.380;2023-02-10T03:18:54;7.88;;;4.55;;
40849;SDS011;26571;41.610;25.380;2023-02-10T03:21:19;9.45;;;5.70;;
40849;SDS011;26571;41.610;25.380;2023-02-10T03:23:45;5.53;;;4.15;;
40849;SDS011;26571;41.610;25.380;2023-02-10T03:26:10;5.38;;;4.60;;
40849;SDS011;26571;41.610;25.380;2023-02-10T03:28:36;6.13;;;5.18;;
40849;SDS011;26571;41.610;25.380;2023-02-10T03:31:02;4.38;;;4.07;;
40849;SDS011;26571;41.610;25.380;2023-02-10T03:33:29;4.32;;;3.92;;
40849;SDS011;26571;41.610;25.380;2023-02-10T03:35:54;4.60;;;4.15;;
40849;SDS011;26571;41.610;25.380;2023-02-10T03:38:20;4.18;;;3.50;;
40849;SDS011;26571;41.610;25.380;2023-02-10T03:40:48;4.15;;;3.85;;
40849;SDS011;26571;41.610;25.380;2023-02-10T03:43:15;9.40;;;4.22;;
40849;SDS011;26571;41.610;25.380;2023-02-10T03:45:40;6.47;;;5.22;;
40849;SDS011;26571;41.610;25.380;2023-02-10T03:48:06;5.40;;;4.72;;
40849;SDS011;26571;41.610;25.380;2023-02-10T03:50:31;4.55;;;4.15;;
40849;SDS011;26571;41.610;25.380;2023-02-10T03:52:57;7.10;;;4.97;;
40849;SDS011;26571;41.610;25.380;2023-02-10T03:55:22;5.68;;;5.28;;
40849;SDS011;26571;41.610;25.380;2023-02-10T03:57:48;14.40;;;6.43;;
40849;SDS011;26571;41.610;25.380;2023-02-10T04:00:13;5.38;;;4.43;;
40849;SDS011;26571;41.610;25.380;2023-02-10T04:02:40;4.63;;;4.10;;
40849;SDS011;26571;41.610;25.380;2023-02-10T04:05:06;4.13;;;3.83;;
40849;SDS011;26571;41.610;25.380;2023-02-10T04:07:31;5.40;;;4.85;;
40849;SDS011;26571;41.610;25.380;2023-02-10T04:09:57;6.57;;;4.90;;
40849;SDS011;26571;41.610;25.380;2023-02-10T04:12:22;5.85;;;4.80;;
40849;SDS011;26571;41.610;25.380;2023-02-10T04:14:47;5.97;;;5.47;;
40849;SDS011;26571;41.610;25.380;2023-02-10T04:17:14;5.70;;;4.18;;
40849;SDS011;26571;41.610;25.380;2023-02-10T04:19:39;4.78;;;4.47;;
40849;SDS011;26571;41.610;25.380;2023-02-10T04:22:05;5.53;;;4.13;;
40849;SDS011;26571;41.610;25.380;2023-02-10T04:24:30;5.60;;;5.00;;
40849;SDS011;26571;41.610;25.380;2023-02-10T04:26:56;5.28;;;4.78;;
40849;SDS011;26571;41.610;25.380;2023-02-10T04:29:21;4.80;;;4.45;;
40849;SDS011;26571;41.610;25.380;2023-02-10T04:31:47;6.50;;;5.47;;
40849;SDS011;26571;41.610;25.380;2023-02-10T04:34:12;5.43;;;5.03;;
40849;SDS011;26571;41.610;25.380;2023-02-10T04:36:38;5.60;;;5.18;;
40849;SDS011;26571;41.610;25.380;2023-02-10T04:39:03;6.95;;;6.30;;
40849;SDS011;26571;41.610;25.380;2023-02-10T04:41:29;7.65;;;6.00;;
40849;SDS011;26571;41.610;25.380;2023-02-10T04:43:54;8.43;;;6.53;;
40849;SDS011;26571;41.610;25.380;2023-02-10T04:46:19;7.38;;;5.45;;
40849;SDS011;26571;41.610;25.380;2023-02-10T04:48:45;4.70;;;4.30;;
40849;SDS011;26571;41.610;25.380;2023-02-10T04:51:11;4.50;;;4.10;;
40849;SDS011;26571;41.610;25.380;2023-02-10T04:53:38;8.77;;;5.28;;
40849;SDS011;26571;41.610;25.380;2023-02-10T04:56:05;6.20;;;5.68;;
40849;SDS011;26571;41.610;25.380;2023-02-10T04:58:31;3.23;;;3.03;;
40849;SDS011;26571;41.610;25.380;2023-02-10T05:00:57;9.38;;;5.82;;
40849;SDS011;26571;41.610;25.380;2023-02-10T05:03:22;7.47;;;5.35;;
40849;SDS011;26571;41.610;25.380;2023-02-10T05:05:48;7.57;;;6.43;;
40849;SDS011;26571;41.610;25.380;2023-02-10T05:08:16;6.43;;;5.88;;
40849;SDS011;26571;41.610;25.380;2023-02-10T05:10:45;9.07;;;6.82;;
40849;SDS011;26571;41.610;25.380;2023-02-10T05:13:11;9.35;;;5.78;;
40849;SDS011;26571;41.610;25.380;2023-02-10T05:15:37;7.43;;;4.63;;
40849;SDS011;26571;41.610;25.380;2023-02-10T05:18:02;6.97;;;5.32;;
40849;SDS011;26571;41.610;25.380;2023-02-10T05:20:28;5.45;;;4.68;;
40849;SDS011;26571;41.610;25.380;2023-02-10T05:22:53;9.55;;;6.80;;
40849;SDS011;26571;41.610;25.380;2023-02-10T05:25:18;8.90;;;7.97;;
40849;SDS011;26571;41.610;25.380;2023-02-10T05:27:44;11.13;;;9.90;;
40849;SDS011;26571;41.610;25.380;2023-02-10T05:30:09;14.10;;;10.38;;
40849;SDS011;26571;41.610;25.380;2023-02-10T05:32:37;15.95;;;11.90;;
40849;SDS011;26571;41.610;25.380;2023-02-10T05:35:04;18.15;;;11.10;;
40849;SDS011;26571;41.610;25.380;2023-02-10T05:37:29;18.02;;;11.70;;
40849;SDS011;26571;41.610;25.380;2023-02-10T05:39:55;16.27;;;12.85;;
40849;SDS011;26571;41.610;25.380;2023-02-10T05:42:21;68.75;;;32.30;;
40849;SDS011;26571;41.610;25.380;2023-02-10T05:44:46;40.05;;;21.42;;
40849;SDS011;26571;41.610;25.380;2023-02-10T05:47:11;30.65;;;20.15;;
40849;SDS011;26571;41.610;25.380;2023-02-10T05:49:37;21.38;;;16.00;;
40849;SDS011;26571;41.610;25.380;2023-02-10T05:52:02;16.20;;;12.50;;
40849;SDS011;26571;41.610;25.380;2023-02-10T05:54:28;13.95;;;10.35;;
40849;SDS011;26571;41.610;25.380;2023-02-10T05:56:54;18.17;;;11.43;;
40849;SDS011;26571;41.610;25.380;2023-02-10T05:59:20;14.48;;;9.20;;
40849;SDS011;26571;41.610;25.380;2023-02-10T06:01:45;11.13;;;8.23;;
40849;SDS011;26571;41.610;25.380;2023-02-10T06:04:11;26.60;;;15.77;;
40849;SDS011;26571;41.610;25.380;2023-02-10T06:06:36;17.83;;;11.35;;
40849;SDS011;26571;41.610;25.380;2023-02-10T06:09:02;22.13;;;10.40;;
40849;SDS011;26571;41.610;25.380;2023-02-10T06:11:28;14.30;;;10.85;;
40849;SDS011;26571;41.610;25.380;2023-02-10T06:13:53;11.27;;;9.13;;
40849;SDS011;26571;41.610;25.380;2023-02-10T06:16:19;11.55;;;10.23;;
40849;SDS011;26571;41.610;25.380;2023-02-10T06:18:44;14.18;;;11.00;;
40849;SDS011;26571;41.610;25.380;2023-02-10T06:21:12;22.08;;;14.50;;
40849;SDS011;26571;41.610;25.380;2023-02-10T06:23:38;16.50;;;13.18;;
40849;SDS011;26571;41.610;25.380;2023-02-10T06:26:04;15.40;;;11.40;;
40849;SDS011;26571;41.610;25.380;2023-02-10T06:28:29;12.60;;;10.48;;
40849;SDS011;26571;41.610;25.380;2023-02-10T06:30:54;16.48;;;12.13;;
40849;SDS011;26571;41.610;25.380;2023-02-10T06:33:20;13.90;;;11.73;;
40849;SDS011;26571;41.610;25.380;2023-02-10T06:35:46;15.20;;;11.18;;
40849;SDS011;26571;41.610;25.380;2023-02-10T06:38:12;14.77;;;12.43;;
40849;SDS011;26571;41.610;25.380;2023-02-10T06:40:38;10.77;;;9.57;;
40849;SDS011;26571;41.610;25.380;2023-02-10T06:43:03;17.05;;;10.73;;
40849;SDS011;26571;41.610;25.380;2023-02-10T06:45:29;16.63;;;12.60;;
40849;SDS011;26571;41.610;25.380;2023-02-10T06:47:55;16.45;;;14.05;;
40849;SDS011;26571;41.610;25.380;2023-02-10T06:50:20;12.45;;;9.90;;
40849;SDS011;26571;41.610;25.380;2023-02-10T06:52:47;15.00;;;11.40;;
40849;SDS011;26571;41.610;25.380;2023-02-10T06:55:13;14.20;;;9.30;;
40849;SDS011;26571;41.610;25.380;2023-02-10T06:57:39;10.50;;;8.75;;
40849;SDS011;26571;41.610;25.380;2023-02-10T07:00:05;11.55;;;8.57;;
40849;SDS011;26571;41.610;25.380;2023-02-10T07:02:33;9.80;;;7.15;;
40849;SDS011;26571;41.610;25.380;2023-02-10T07:04:59;10.90;;;7.87;;
40849;SDS011;26571;41.610;25.380;2023-02-10T07:07:25;13.38;;;10.38;;
40849;SDS011;26571;41.610;25.380;2023-02-10T07:09:51;11.65;;;8.32;;
40849;SDS011;26571;41.610;25.380;2023-02-10T07:12:18;15.20;;;8.48;;
40849;SDS011;26571;41.610;25.380;2023-02-10T07:14:46;13.18;;;8.93;;
40849;SDS011;26571;41.610;25.380;2023-02-10T07:17:11;10.57;;;7.60;;
40849;SDS011;26571;41.610;25.380;2023-02-10T07:19:37;12.75;;;8.35;;
40849;SDS011;26571;41.610;25.380;2023-02-10T07:22:02;12.38;;;10.65;;
40849;SDS011;26571;41.610;25.380;2023-02-10T07:24:31;8.52;;;6.40;;
40849;SDS011;26571;41.610;25.380;2023-02-10T07:26:57;10.23;;;7.60;;
40849;SDS011;26571;41.610;25.380;2023-02-10T07:29:23;13.43;;;9.38;;
40849;SDS011;26571;41.610;25.380;2023-02-10T07:31:49;13.23;;;9.07;;
40849;SDS011;26571;41.610;25.380;2023-02-10T07:34:14;10.68;;;9.68;;
40849;SDS011;26571;41.610;25.380;2023-02-10T07:36:39;11.15;;;8.85;;
40849;SDS011;26571;41.610;25.380;2023-02-10T07:39:05;18.83;;;11.48;;
40849;SDS011;26571;41.610;25.380;2023-02-10T07:41:30;8.98;;;7.65;;
40849;SDS011;26571;41.610;25.380;2023-02-10T07:43:57;13.57;;;8.40;;
40849;SDS011;26571;41.610;25.380;2023-02-10T07:46:22;10.27;;;7.43;;
40849;SDS011;26571;41.610;25.380;2023-02-10T07:48:48;26.63;;;16.55;;
40849;SDS011;26571;41.610;25.380;2023-02-10T07:51:13;24.92;;;16.83;;
40849;SDS011;26571;41.610;25.380;2023-02-10T07:53:38;15.98;;;10.65;;
40849;SDS011;26571;41.610;25.380;2023-02-10T07:56:05;18.83;;;10.07;;
40849;SDS011;26571;41.610;25.380;2023-02-10T07:58:30;10.52;;;7.85;;
40849;SDS011;26571;41.610;25.380;2023-02-10T08:00:56;11.27;;;9.35;;
40849;SDS011;26571;41.610;25.380;2023-02-10T08:03:21;11.15;;;9.70;;
40849;SDS011;26571;41.610;25.380;2023-02-10T08:05:47;14.70;;;10.63;;
40849;SDS011;26571;41.610;25.380;2023-02-10T08:08:13;9.73;;;8.80;;
40849;SDS011;26571;41.610;25.380;2023-02-10T08:10:40;13.32;;;10.85;;
40849;SDS011;26571;41.610;25.380;2023-02-10T08:13:06;13.52;;;9.32;;
40849;SDS011;26571;41.610;25.380;2023-02-10T08:15:32;12.52;;;10.48;;
40849;SDS011;26571;41.610;25.380;2023-02-10T08:17:58;17.90;;;9.52;;
40849;SDS011;26571;41.610;25.380;2023-02-10T08:20:25;22.65;;;16.10;;
40849;SDS011;26571;41.610;25.380;2023-02-10T08:22:56;13.23;;;9.35;;
40849;SDS011;26571;41.610;25.380;2023-02-10T08:25:23;17.40;;;10.57;;
40849;SDS011;26571;41.610;25.380;2023-02-10T08:27:48;12.60;;;9.18;;
40849;SDS011;26571;41.610;25.380;2023-02-10T08:30:14;12.82;;;9.57;;
40849;SDS011;26571;41.610;25.380;2023-02-10T08:32:40;11.45;;;9.32;;
40849;SDS011;26571;41.610;25.380;2023-02-10T08:35:05;13.00;;;10.18;;
40849;SDS011;26571;41.610;25.380;2023-02-10T08:37:31;10.43;;;6.78;;
40849;SDS011;26571;41.610;25.380;2023-02-10T08:39:57;8.98;;;7.45;;
40849;SDS011;26571;41.610;25.380;2023-02-10T08:42:23;14.07;;;8.07;;
40849;SDS011;26571;41.610;25.380;2023-02-10T08:44:49;8.85;;;5.53;;
40849;SDS011;26571;41.610;25.380;2023-02-10T08:47:14;8.68;;;7.53;;
40849;SDS011;26571;41.610;25.380;2023-02-10T08:49:40;8.27;;;5.28;;
40849;SDS011;26571;41.610;25.380;2023-02-10T08:52:06;9.68;;;5.43;;
40849;SDS011;26571;41.610;25.380;2023-02-10T08:54:32;7.65;;;5.82;;
40849;SDS011;26571;41.610;25.380;2023-02-10T08:56:58;5.60;;;5.10;;
40849;SDS011;26571;41.610;25.380;2023-02-10T08:59:23;7.70;;;5.15;;
40849;SDS011;26571;41.610;25.380;2023-02-10T09:01:49;9.40;;;4.15;;
40849;SDS011;26571;41.610;25.380;2023-02-10T09:04:15;4.28;;;3.35;;
40849;SDS011;26571;41.610;25.380;2023-02-10T09:06:41;3.63;;;3.22;;
40849;SDS011;26571;41.610;25.380;2023-02-10T09:09:12;16.10;;;9.73;;
40849;SDS011;26571;41.610;25.380;2023-02-10T09:11:40;5.40;;;4.00;;
40849;SDS011;26571;41.610;25.380;2023-02-10T09:14:07;3.35;;;3.05;;
40849;SDS011;26571;41.610;25.380;2023-02-10T09:16:33;4.10;;;3.70;;
40849;SDS011;26571;41.610;25.380;2023-02-10T09:18:59;3.93;;;3.57;;
40849;SDS011;26571;41.610;25.380;2023-02-10T09:21:25;7.65;;;4.20;;
40849;SDS011;26571;41.610;25.380;2023-02-10T09:23:50;7.90;;;6.45;;
40849;SDS011;26571;41.610;25.380;2023-02-10T09:26:16;5.65;;;3.70;;
40849;SDS011;26571;41.610;25.380;2023-02-10T09:28:42;13.40;;;9.52;;
40849;SDS011;26571;41.610;25.380;2023-02-10T09:31:07;10.90;;;5.93;;
40849;SDS011;26571;41.610;25.380;2023-02-10T09:33:34;26.20;;;11.68;;
40849;SDS011;26571;41.610;25.380;2023-02-10T09:36:04;9.82;;;6.00;;
40849;SDS011;26571;41.610;25.380;2023-02-10T09:38:31;5.97;;;3.58;;
40849;SDS011;26571;41.610;25.380;2023-02-10T09:53:55;4.95;;;4.03;;
40849;SDS011;26571;41.610;25.380;2023-02-10T09:56:21;3.25;;;2.78;;
40849;SDS011;26571;41.610;25.380;2023-02-10T09:58:51;4.68;;;3.20;;
40849;SDS011;26571;41.610;25.380;2023-02-10T10:01:24;6.45;;;5.85;;
40849;SDS011;26571;41.610;25.380;2023-02-10T10:06:29;3.25;;;2.00;;
40849;SDS011;26571;41.610;25.380;2023-02-10T10:19:35;6.80;;;2.78;;
40849;SDS011;26571;41.610;25.380;2023-02-10T10:27:41;3.15;;;2.10;;
40849;SDS011;26571;41.610;25.380;2023-02-10T10:30:46;2.92;;;2.72;;
40849;SDS011;26571;41.610;25.380;2023-02-10T10:35:52;3.65;;;2.72;;
40849;SDS011;26571;41.610;25.380;2023-02-10T10:38:21;7.13;;;3.67;;
40849;SDS011;26571;41.610;25.380;2023-02-10T10:40:53;3.67;;;2.58;;
40849;SDS011;26571;41.610;25.380;2023-02-10T10:43:23;3.97;;;1.42;;
40849;SDS011;26571;41.610;25.380;2023-02-10T10:46:11;3.03;;;2.05;;
40849;SDS011;26571;41.610;25.380;2023-02-10T10:48:40;9.38;;;4.55;;
40849;SDS011;26571;41.610;25.380;2023-02-10T10:51:07;7.95;;;6.47;;
40849;SDS011;26571;41.610;25.380;2023-02-10T10:56:26;9.20;;;5.25;;
40849;SDS011;26571;41.610;25.380;2023-02-10T10:58:54;3.10;;;2.42;;
40849;SDS011;26571;41.610;25.380;2023-02-10T11:01:30;7.60;;;4.85;;
40849;SDS011;26571;41.610;25.380;2023-02-10T11:04:11;5.15;;;3.28;;
40849;SDS011;26571;41.610;25.380;2023-02-10T11:06:49;7.65;;;5.05;;
40849;SDS011;26571;41.610;25.380;2023-02-10T11:09:21;4.32;;;3.88;;
40849;SDS011;26571;41.610;25.380;2023-02-10T11:11:47;4.25;;;2.38;;
40849;SDS011;26571;41.610;25.380;2023-02-10T11:16:46;5.00;;;2.30;;
40849;SDS011;26571;41.610;25.380;2023-02-10T11:19:18;8.52;;;3.03;;
40849;SDS011;26571;41.610;25.380;2023-02-10T11:21:48;5.88;;;3.28;;
40849;SDS011;26571;41.610;25.380;2023-02-10T11:24:19;6.80;;;2.67;;
40849;SDS011;26571;41.610;25.380;2023-02-10T11:29:27;6.65;;;3.58;;
40849;SDS011;26571;41.610;25.380;2023-02-10T11:31:56;8.23;;;4.75;;
40849;SDS011;26571;41.610;25.380;2023-02-10T11:37:09;3.35;;;2.58;;
40849;SDS011;26571;41.610;25.380;2023-02-10T11:39:38;8.85;;;6.28;;
40849;SDS011;26571;41.610;25.380;2023-02-10T11:42:17;6.32;;;3.42;;
40849;SDS011;26571;41.610;25.380;2023-02-10T11:47:19;6.88;;;2.80;;
40849;SDS011;26571;41.610;25.380;2023-02-10T11:49:45;3.97;;;2.65;;
40849;SDS011;26571;41.610;25.380;2023-02-10T11:52:14;4.85;;;3.05;;
40849;SDS011;26571;41.610;25.380;2023-02-10T11:54:40;2.28;;;1.88;;
40849;SDS011;26571;41.610;25.380;2023-02-10T12:08:48;7.88;;;3.17;;
40849;SDS011;26571;41.610;25.380;2023-02-10T12:14:05;2.00;;;1.75;;
40849;SDS011;26571;41.610;25.380;2023-02-10T12:17:04;3.75;;;2.83;;
40849;SDS011;26571;41.610;25.380;2023-02-10T12:19:39;2.45;;;1.17;;
40849;SDS011;26571;41.610;25.380;2023-02-10T12:28:01;10.57;;;6.03;;
40849;SDS011;26571;41.610;25.380;2023-02-10T12:39:02;2.38;;;2.17;;
40849;SDS011;26571;41.610;25.380;2023-02-10T12:42:17;3.17;;;2.85;;
40849;SDS011;26571;41.610;25.380;2023-02-10T12:53:08;6.35;;;3.47;;
40849;SDS011;26571;41.610;25.380;2023-02-10T12:55:51;9.48;;;4.03;;
40849;SDS011;26571;41.610;25.380;2023-02-10T12:58:32;8.07;;;5.32;;
40849;SDS011;26571;41.610;25.380;2023-02-10T13:06:39;6.65;;;3.47;;
40849;SDS011;26571;41.610;25.380;2023-02-10T13:09:11;3.88;;;3.30;;
40849;SDS011;26571;41.610;25.380;2023-02-10T13:14:42;4.63;;;4.22;;
40849;SDS011;26571;41.610;25.380;2023-02-10T13:17:09;3.15;;;2.55;;
40849;SDS011;26571;41.610;25.380;2023-02-10T13:25:19;2.75;;;2.33;;
40849;SDS011;26571;41.610;25.380;2023-02-10T13:36:15;25.75;;;11.30;;
40849;SDS011;26571;41.610;25.380;2023-02-10T13:38:45;5.72;;;3.80;;
40849;SDS011;26571;41.610;25.380;2023-02-10T13:41:31;11.57;;;5.30;;
40849;SDS011;26571;41.610;25.380;2023-02-10T13:44:15;8.20;;;3.42;;
40849;SDS011;26571;41.610;25.380;2023-02-10T13:46:43;4.45;;;3.10;;
40849;SDS011;26571;41.610;25.380;2023-02-10T13:49:16;4.15;;;3.38;;
40849;SDS011;26571;41.610;25.380;2023-02-10T13:51:43;7.22;;;4.43;;
40849;SDS011;26571;41.610;25.380;2023-02-10T13:54:28;5.95;;;4.22;;
40849;SDS011;26571;41.610;25.380;2023-02-10T13:56:56;2.60;;;2.35;;
40849;SDS011;26571;41.610;25.380;2023-02-10T14:02:37;6.72;;;4.18;;
40849;SDS011;26571;41.610;25.380;2023-02-10T14:04:55;4.18;;;3.20;;
40849;SDS011;26571;41.610;25.380;2023-02-10T14:10:02;6.20;;;4.07;;
40849;SDS011;26571;41.610;25.380;2023-02-10T14:12:58;6.88;;;4.32;;
40849;SDS011;26571;41.610;25.380;2023-02-10T14:15:52;3.55;;;2.88;;
40849;SDS011;26571;41.610;25.380;2023-02-10T14:23:25;28.63;;;15.25;;
40849;SDS011;26571;41.610;25.380;2023-02-10T14:26:28;27.27;;;13.10;;
40849;SDS011;26571;41.610;25.380;2023-02-10T14:28:49;22.98;;;13.20;;
40849;SDS011;26571;41.610;25.380;2023-02-10T14:31:29;19.38;;;9.38;;
40849;SDS011;26571;41.610;25.380;2023-02-10T14:34:01;7.03;;;3.83;;
40849;SDS011;26571;41.610;25.380;2023-02-10T14:36:29;7.95;;;4.88;;
40849;SDS011;26571;41.610;25.380;2023-02-10T14:38:56;4.38;;;2.70;;
40849;SDS011;26571;41.610;25.380;2023-02-10T14:41:23;4.32;;;3.28;;
40849;SDS011;26571;41.610;25.380;2023-02-10T14:43:50;4.90;;;4.47;;
40849;SDS011;26571;41.610;25.380;2023-02-10T14:46:23;5.65;;;5.07;;
40849;SDS011;26571;41.610;25.380;2023-02-10T14:48:51;8.73;;;6.97;;
40849;SDS011;26571;41.610;25.380;2023-02-10T14:51:25;8.23;;;6.30;;
40849;SDS011;26571;41.610;25.380;2023-02-10T14:53:52;5.40;;;4.00;;
40849;SDS011;26571;41.610;25.380;2023-02-10T14:56:27;8.13;;;4.80;;
40849;SDS011;26571;41.610;25.380;2023-02-10T14:58:53;7.80;;;5.32;;
40849;SDS011;26571;41.610;25.380;2023-02-10T15:01:24;10.80;;;7.03;;
40849;SDS011;26571;41.610;25.380;2023-02-10T15:03:50;9.63;;;5.75;;
40849;SDS011;26571;41.610;25.380;2023-02-10T15:06:16;4.80;;;4.38;;
40849;SDS011;26571;41.610;25.380;2023-02-10T15:11:23;8.20;;;5.85;;
40849;SDS011;26571;41.610;25.380;2023-02-10T15:14:16;8.00;;;7.20;;
40849;SDS011;26571;41.610;25.380;2023-02-10T15:16:45;16.92;;;11.00;;
40849;SDS011;26571;41.610;25.380;2023-02-10T15:19:13;8.73;;;7.25;;
40849;SDS011;26571;41.610;25.380;2023-02-10T15:21:40;5.20;;;4.60;;
40849;SDS011;26571;41.610;25.380;2023-02-10T15:24:16;7.00;;;6.30;;
40849;SDS011;26571;41.610;25.380;2023-02-10T15:26:44;5.93;;;5.40;;
40849;SDS011;26571;41.610;25.380;2023-02-10T15:29:10;6.03;;;5.47;;
40849;SDS011;26571;41.610;25.380;2023-02-10T15:31:37;20.95;;;14.57;;
40849;SDS011;26571;41.610;25.380;2023-02-10T15:34:43;13.00;;;10.05;;
40849;SDS011;26571;41.610;25.380;2023-02-10T15:37:02;6.10;;;5.25;;
40849;SDS011;26571;41.610;25.380;2023-02-10T15:39:31;9.00;;;5.88;;
40849;SDS011;26571;41.610;25.380;2023-02-10T15:44:31;15.57;;;10.93;;
40849;SDS011;26571;41.610;25.380;2023-02-10T15:49:41;10.10;;;8.95;;
40849;SDS011;26571;41.610;25.380;2023-02-10T15:52:19;17.83;;;12.00;;
40849;SDS011;26571;41.610;25.380;2023-02-10T15:54:47;23.75;;;12.40;;
40849;SDS011;26571;41.610;25.380;2023-02-10T15:57:15;179.75;;;19.95;;
40849;SDS011;26571;41.610;25.380;2023-02-10T15:59:41;24.73;;;11.45;;
40849;SDS011;26571;41.610;25.380;2023-02-10T16:02:07;25.92;;;10.30;;
40849;SDS011;26571;41.610;25.380;2023-02-10T16:04:36;35.72;;;22.52;;
40849;SDS011;26571;41.610;25.380;2023-02-10T16:07:02;26.73;;;15.40;;
40849;SDS011;26571;41.610;25.380;2023-02-10T16:09:30;58.75;;;28.15;;
40849;SDS011;26571;41.610;25.380;2023-02-10T16:11:56;61.40;;;34.45;;
40849;SDS011;26571;41.610;25.380;2023-02-10T16:14:22;40.15;;;29.92;;
40849;SDS011;26571;41.610;25.380;2023-02-10T16:16:49;40.45;;;23.80;;
40849;SDS011;26571;41.610;25.380;2023-02-10T16:19:18;94.28;;;44.03;;
40849;SDS011;26571;41.610;25.380;2023-02-10T16:21:46;19.92;;;12.10;;
40849;SDS011;26571;41.610;25.380;2023-02-10T16:24:13;16.60;;;9.70;;
40849;SDS011;26571;41.610;25.380;2023-02-10T16:26:44;58.03;;;26.25;;
40849;SDS011;26571;41.610;25.380;2023-02-10T16:29:14;14.53;;;9.50;;
40849;SDS011;26571;41.610;25.380;2023-02-10T16:31:41;32.33;;;17.55;;
40849;SDS011;26571;41.610;25.380;2023-02-10T16:34:07;42.17;;;23.05;;
40849;SDS011;26571;41.610;25.380;2023-02-10T16:36:33;202.95;;;84.70;;
40849;SDS011;26571;41.610;25.380;2023-02-10T16:38:59;103.95;;;55.85;;
40849;SDS011;26571;41.610;25.380;2023-02-10T16:41:25;64.07;;;34.85;;
40849;SDS011;26571;41.610;25.380;2023-02-10T16:43:50;58.13;;;32.50;;
40849;SDS011;26571;41.610;25.380;2023-02-10T16:46:17;36.83;;;23.42;;
40849;SDS011;26571;41.610;25.380;2023-02-10T16:48:44;39.03;;;22.30;;
40849;SDS011;26571;41.610;25.380;2023-02-10T16:51:09;42.05;;;25.30;;
40849;SDS011;26571;41.610;25.380;2023-02-10T16:53:35;36.30;;;21.45;;
40849;SDS011;26571;41.610;25.380;2023-02-10T16:56:01;37.53;;;23.88;;
40849;SDS011;26571;41.610;25.380;2023-02-10T16:58:26;67.43;;;30.05;;
40849;SDS011;26571;41.610;25.380;2023-02-10T17:00:52;65.35;;;25.85;;
40849;SDS011;26571;41.610;25.380;2023-02-10T17:03:17;77.47;;;30.02;;
40849;SDS011;26571;41.610;25.380;2023-02-10T17:05:43;68.38;;;27.95;;
40849;SDS011;26571;41.610;25.380;2023-02-10T17:08:09;65.20;;;27.35;;
40849;SDS011;26571;41.610;25.380;2023-02-10T17:10:35;70.00;;;27.92;;
40849;SDS011;26571;41.610;25.380;2023-02-10T17:13:01;93.18;;;35.72;;
40849;SDS011;26571;41.610;25.380;2023-02-10T17:15:28;197.20;;;57.72;;